createdAt,value
2019-05-07T00:03:32.811Z,13.93
2019-05-07T00:08:38.357Z,13.30
2019-05-07T00:13:44.437Z,13.23
2019-05-07T00:18:52.409Z,14.50
2019-05-07T00:23:57.203Z,13.97
2019-05-07T00:29:02.617Z,15.30
2019-05-07T00:34:08.126Z,15.27
2019-05-07T00:39:35.529Z,15.13
2019-05-07T00:44:57.358Z,14.83
2019-05-07T00:50:07.313Z,15.37
2019-05-07T00:55:12.727Z,15.60
2019-05-07T01:00:18.152Z,16.20
2019-05-07T01:05:23.583Z,15.50
2019-05-07T01:10:28.984Z,13.50
2019-05-07T01:15:34.881Z,17.37
2019-05-07T01:20:42.267Z,14.87
2019-05-07T01:25:47.489Z,15.93
2019-05-07T01:30:53.070Z,17.40
2019-05-07T01:36:22.361Z,14.70
2019-05-07T01:41:27.137Z,15.17
2019-05-07T01:46:32.585Z,15.47
2019-05-07T01:51:37.979Z,17.10
2019-05-07T01:56:43.391Z,15.93
2019-05-07T02:01:52.294Z,15.83
2019-05-07T02:07:15.319Z,14.83
2019-05-07T02:12:25.116Z,15.47
2019-05-07T02:17:32.237Z,14.93
2019-05-07T02:22:37.751Z,15.67
2019-05-07T02:27:43.153Z,17.20
2019-05-07T02:32:48.579Z,16.27
2019-05-07T02:38:03.113Z,15.93
2019-05-07T02:43:08.201Z,16.23
2019-05-07T02:48:15.439Z,16.33
2019-05-07T02:53:48.766Z,16.50
2019-05-07T02:58:54.159Z,16.33
2019-05-07T03:03:59.589Z,17.43
2019-05-07T03:09:06.387Z,17.30
2019-05-07T03:14:14.105Z,17.53
2019-05-07T03:19:19.057Z,16.57
2019-05-07T03:24:39.357Z,17.13
2019-05-07T03:29:53.499Z,16.77
2019-05-07T03:35:15.676Z,16.60
2019-05-07T03:40:17.592Z,17.23
2019-05-07T03:45:43.235Z,17.80
2019-05-07T03:50:49.059Z,18.10
2019-05-07T03:55:54.473Z,18.07
2019-05-07T04:00:59.871Z,17.87
2019-05-07T04:06:05.532Z,17.73
2019-05-07T04:11:13.407Z,18.93
2019-05-07T04:16:18.089Z,17.70
2019-05-07T04:21:23.563Z,18.27
2019-05-07T04:26:38.444Z,16.93
2019-05-07T04:31:44.051Z,17.00
2019-05-07T04:36:53.158Z,16.97
2019-05-07T04:41:57.584Z,18.10
2019-05-07T04:47:04.293Z,18.03
2019-05-07T04:52:15.257Z,15.50
2019-05-07T04:57:26.965Z,19.13
2019-05-07T05:02:48.546Z,18.20
2019-05-07T05:07:54.015Z,16.20
2019-05-07T05:12:59.426Z,14.87
2019-05-07T05:18:04.843Z,17.63
2019-05-07T05:23:17.975Z,16.97
2019-05-07T05:28:23.545Z,17.17
2019-05-07T05:33:29.033Z,17.50
2019-05-07T05:38:34.466Z,16.60
2019-05-07T05:43:45.768Z,15.90
2019-05-07T05:48:52.005Z,15.83
2019-05-07T05:54:05.349Z,16.13
2019-05-07T05:59:46.939Z,17.00
2019-05-07T06:05:02.169Z,15.60
2019-05-07T06:10:22.696Z,15.73
2019-05-07T06:15:45.271Z,16.37
2019-05-07T06:21:04.778Z,14.10
2019-05-07T06:26:12.650Z,13.57
2019-05-07T06:31:17.560Z,13.20
2019-05-07T06:36:23.013Z,13.67
2019-05-07T06:41:45.636Z,13.73
2019-05-07T06:46:52.640Z,13.83
2019-05-07T06:51:58.416Z,12.93
2019-05-07T06:57:03.828Z,12.40
2019-05-07T07:02:26.743Z,12.37
2019-05-07T07:07:42.124Z,13.53
2019-05-07T07:12:48.234Z,11.37
2019-05-07T07:17:53.949Z,12.80
2019-05-07T07:22:59.786Z,15.10
2019-05-07T07:28:05.288Z,15.93
2019-05-07T07:33:12.201Z,17.03
2019-05-07T07:38:33.517Z,15.53
2019-05-07T07:43:39.122Z,17.70
2019-05-07T07:48:44.805Z,15.77
2019-05-07T07:53:52.032Z,17.77
2019-05-07T07:59:16.428Z,17.37
2019-05-07T08:04:22.956Z,15.80
2019-05-07T08:09:28.586Z,16.50
2019-05-07T08:14:34.229Z,15.73
2019-05-07T08:19:39.665Z,16.53
2019-05-07T08:24:45.189Z,16.73
2019-05-07T08:29:52.453Z,17.03
2019-05-07T08:35:14.323Z,16.50
2019-05-07T08:40:21.936Z,16.33
2019-05-07T08:45:44.538Z,15.67
2019-05-07T08:50:49.939Z,15.80
2019-05-07T08:55:55.421Z,14.37
2019-05-07T09:01:03.000Z,15.53
2019-05-07T09:06:08.165Z,14.57
2019-05-07T09:11:13.877Z,14.57
2019-05-07T09:16:19.624Z,14.20
2019-05-07T09:21:25.374Z,13.30
2019-05-07T09:26:38.017Z,13.73
2019-05-07T09:32:03.018Z,13.33
2019-05-07T09:37:12.434Z,13.90
2019-05-07T09:42:17.977Z,13.23
2019-05-07T09:47:23.473Z,13.40
2019-05-07T09:52:28.940Z,14.70
2019-05-07T09:57:34.830Z,15.17
2019-05-07T10:02:42.327Z,13.30
2019-05-07T10:07:47.619Z,13.27
2019-05-07T10:13:12.182Z,13.70
2019-05-07T10:18:19.256Z,12.47
2019-05-07T10:23:24.814Z,14.23
2019-05-07T10:28:32.061Z,13.63
2019-05-07T10:33:37.398Z,13.80
2019-05-07T10:38:42.917Z,12.27
2019-05-07T10:43:48.418Z,11.53
2019-05-07T10:49:02.111Z,12.20
2019-05-07T10:54:07.587Z,11.00
2019-05-07T10:59:13.044Z,11.60
2019-05-07T11:04:18.470Z,10.67
2019-05-07T11:09:23.957Z,11.50
2019-05-07T11:14:29.565Z,10.77
2019-05-07T11:19:35.068Z,11.07
2019-05-07T11:24:42.600Z,11.40
2019-05-07T11:29:47.942Z,11.33
2019-05-07T11:34:56.302Z,12.03
2019-05-07T11:40:03.047Z,12.07
2019-05-07T11:45:12.602Z,11.30
2019-05-07T11:50:33.056Z,12.20
2019-05-07T11:55:38.617Z,11.97
2019-05-07T12:00:52.580Z,12.53
2019-05-07T12:05:57.999Z,13.17
2019-05-07T12:11:03.435Z,12.77
2019-05-07T12:16:11.474Z,12.20
2019-05-07T12:21:20.786Z,12.00
2019-05-07T12:26:23.196Z,11.50
2019-05-07T12:32:05.486Z,11.70
2019-05-07T12:37:12.281Z,12.20
2019-05-07T12:42:18.781Z,11.97
2019-05-07T12:47:24.765Z,12.00
2019-05-07T12:52:36.055Z,11.30
2019-05-07T12:57:42.066Z,10.07
2019-05-07T13:03:07.854Z,11.00
2019-05-07T13:08:13.290Z,11.17
2019-05-07T13:13:18.778Z,11.47
2019-05-07T13:18:24.580Z,11.43
2019-05-07T13:23:31.835Z,10.87
2019-05-07T13:28:37.393Z,11.37
2019-05-07T13:33:42.843Z,10.27
2019-05-07T13:39:02.423Z,9.93
2019-05-07T13:44:26.849Z,9.93
2019-05-07T13:49:32.383Z,9.67
2019-05-07T13:54:38.023Z,11.07
2019-05-07T13:59:44.038Z,8.93
2019-05-07T14:04:49.531Z,10.43
2019-05-07T14:09:54.966Z,10.43
2019-05-07T14:15:02.142Z,8.97
2019-05-07T14:20:08.114Z,7.80
2019-05-07T14:25:13.610Z,7.03
2019-05-07T14:30:21.746Z,6.60
2019-05-07T14:35:32.683Z,7.27
2019-05-07T14:40:38.188Z,5.83
2019-05-07T14:45:43.649Z,6.70
2019-05-07T14:50:49.109Z,6.53
2019-05-07T14:55:54.599Z,7.07
2019-05-07T15:01:02.275Z,6.67
2019-05-07T15:06:07.169Z,6.50
2019-05-07T15:11:12.875Z,7.40
2019-05-07T15:16:18.292Z,6.50
2019-05-07T15:21:24.127Z,7.37
2019-05-07T15:26:29.645Z,6.57
2019-05-07T15:31:52.399Z,6.80
2019-05-07T15:36:57.834Z,6.93
2019-05-07T15:42:03.252Z,5.93
2019-05-07T15:47:13.370Z,5.83
2019-05-07T15:52:24.523Z,5.93
2019-05-07T15:57:30.274Z,6.10
2019-05-07T16:02:38.808Z,5.70
2019-05-07T16:07:45.998Z,6.13
2019-05-07T16:12:53.064Z,5.87
2019-05-07T16:18:02.967Z,5.53
2019-05-07T16:23:14.728Z,4.70
2019-05-07T16:28:15.876Z,4.20
2019-05-07T16:33:21.418Z,4.83
2019-05-07T16:38:26.867Z,3.67
2019-05-07T16:43:32.464Z,4.13
2019-05-07T16:48:37.920Z,4.57
2019-05-07T16:53:43.355Z,4.50
2019-05-07T16:58:53.248Z,4.60
2019-05-07T17:04:00.143Z,4.30
2019-05-07T17:09:14.638Z,4.60
2019-05-07T17:14:20.119Z,4.77
2019-05-07T17:19:25.563Z,4.70
2019-05-07T17:24:32.874Z,4.93
2019-05-07T17:29:38.137Z,4.37
2019-05-07T17:34:43.664Z,4.90
2019-05-07T17:39:49.099Z,5.03
2019-05-07T17:44:54.488Z,5.40
2019-05-07T17:50:02.043Z,4.70
2019-05-07T17:55:10.131Z,4.90
2019-05-07T18:00:15.707Z,4.80
2019-05-07T18:05:21.640Z,5.90
2019-05-07T18:10:27.231Z,6.17
2019-05-07T18:15:33.174Z,5.03
2019-05-07T18:20:38.674Z,4.43
2019-05-07T18:25:44.271Z,4.50
2019-05-07T18:30:49.968Z,4.20
2019-05-07T18:35:55.348Z,4.00
2019-05-07T18:41:02.654Z,4.50
2019-05-07T18:46:08.558Z,4.70
2019-05-07T18:51:14.102Z,4.50
2019-05-07T18:56:21.892Z,4.27
2019-05-07T19:01:28.570Z,4.20
2019-05-07T19:06:34.108Z,3.90
2019-05-07T19:11:39.761Z,4.83
2019-05-07T19:16:45.322Z,3.87
2019-05-07T19:21:52.783Z,5.30
2019-05-07T19:26:57.992Z,4.87
2019-05-07T19:32:04.273Z,5.23
2019-05-07T19:37:09.894Z,4.70
2019-05-07T19:42:15.369Z,4.63
2019-05-07T19:47:23.070Z,5.17
2019-05-07T19:52:28.316Z,6.53
2019-05-07T19:57:39.151Z,6.23
2019-05-07T20:02:47.661Z,5.97
2019-05-07T20:07:55.596Z,5.67
2019-05-07T20:13:00.215Z,5.10
2019-05-07T20:18:05.913Z,5.20
2019-05-07T20:23:12.024Z,5.30
2019-05-07T20:28:17.553Z,4.60
2019-05-07T20:33:23.066Z,4.93
2019-05-07T20:38:28.676Z,5.10
2019-05-07T20:43:34.087Z,4.67
2019-05-07T20:48:42.141Z,5.37
2019-05-07T20:54:14.389Z,4.67
2019-05-07T20:59:21.917Z,4.77
2019-05-07T21:04:27.335Z,4.87
2019-05-07T21:09:33.008Z,4.83
2019-05-07T21:14:38.650Z,4.30
2019-05-07T21:19:44.064Z,5.33
2019-05-07T21:24:49.479Z,5.30
2019-05-07T21:29:54.888Z,5.13
2019-05-07T21:35:00.304Z,4.57
2019-05-07T21:40:06.199Z,4.87
2019-05-07T21:45:11.648Z,5.00
2019-05-07T21:50:17.053Z,4.80
2019-05-07T21:55:34.625Z,4.87
2019-05-07T22:00:54.392Z,4.70
2019-05-07T22:05:59.795Z,4.83
2019-05-07T22:11:05.403Z,4.30
2019-05-07T22:16:12.967Z,5.47
2019-05-07T22:21:20.163Z,5.00
2019-05-07T22:26:26.565Z,4.67
2019-05-07T22:32:09.053Z,4.70
2019-05-07T22:37:14.603Z,4.57
2019-05-07T22:42:22.223Z,4.70
2019-05-07T22:47:27.278Z,4.87
2019-05-07T22:52:32.790Z,4.97
2019-05-07T22:57:44.049Z,4.90
2019-05-07T23:02:51.704Z,4.87
2019-05-07T23:07:56.752Z,5.10
2019-05-07T23:13:04.258Z,5.00
2019-05-07T23:18:09.665Z,4.73
2019-05-07T23:23:15.085Z,5.20
2019-05-07T23:28:22.800Z,5.10
2019-05-07T23:33:27.633Z,5.50
2019-05-07T23:38:33.035Z,5.20
2019-05-07T23:43:38.709Z,5.40
2019-05-07T23:48:44.197Z,4.87
2019-05-07T23:53:51.825Z,5.10
2019-05-07T23:58:56.777Z,4.87
